createdAt,value
2019-02-27T00:01:22.025Z,990.88
2019-02-27T00:02:22.963Z,990.88
2019-02-27T00:04:26.430Z,990.86
2019-02-27T00:05:26.668Z,990.90
2019-02-27T00:07:30.829Z,990.88
2019-02-27T00:08:31.067Z,990.89
2019-02-27T00:10:36.877Z,990.86
2019-02-27T00:11:35.472Z,990.84
2019-02-27T00:13:39.646Z,990.87
2019-02-27T00:14:39.881Z,990.89
2019-02-27T00:16:44.620Z,990.90
2019-02-27T00:17:44.268Z,990.87
2019-02-27T00:19:48.436Z,990.92
2019-02-27T00:20:48.673Z,990.93
2019-02-27T00:22:52.822Z,990.97
2019-02-27T00:23:56.661Z,990.99
2019-02-27T00:25:57.225Z,990.98
2019-02-27T00:26:57.478Z,991.00
2019-02-27T00:29:01.630Z,990.97
2019-02-27T00:30:05.069Z,991.00
2019-02-27T00:32:06.018Z,990.99
2019-02-27T00:33:06.255Z,990.97
2019-02-27T00:35:10.419Z,990.95
2019-02-27T00:36:12.312Z,990.95
2019-02-27T00:38:03.731Z,990.95
2019-02-27T00:39:03.970Z,990.96
2019-02-27T00:41:12.032Z,990.92
2019-02-27T00:42:08.372Z,990.89
2019-02-27T00:44:12.543Z,990.90
2019-02-27T00:45:12.781Z,990.92
2019-02-27T00:47:19.738Z,990.88
2019-02-27T00:48:17.166Z,990.83
2019-02-27T00:50:21.336Z,990.80
2019-02-27T00:51:21.576Z,990.80
2019-02-27T00:53:25.722Z,990.82
2019-02-27T00:54:25.960Z,990.79
2019-02-27T00:56:30.130Z,990.80
2019-02-27T00:57:30.367Z,990.81
2019-02-27T00:59:34.531Z,990.82
2019-02-27T01:00:38.963Z,990.82
2019-02-27T01:02:38.915Z,990.76
2019-02-27T01:03:39.153Z,990.76
2019-02-27T01:05:43.333Z,990.76
2019-02-27T01:06:45.032Z,990.70
2019-02-27T01:08:47.715Z,990.72
2019-02-27T01:09:47.953Z,990.72
2019-02-27T01:11:52.521Z,990.73
2019-02-27T01:12:52.354Z,990.74
2019-02-27T01:14:56.513Z,990.68
2019-02-27T01:15:56.754Z,990.67
2019-02-27T01:17:49.825Z,990.68
2019-02-27T01:18:50.985Z,990.66
2019-02-27T01:20:54.230Z,990.58
2019-02-27T01:21:54.467Z,990.55
2019-02-27T01:23:58.614Z,990.51
2019-02-27T01:24:58.853Z,990.57
2019-02-27T01:27:04.681Z,990.52
2019-02-27T01:28:03.256Z,990.52
2019-02-27T01:30:07.425Z,990.52
2019-02-27T01:31:07.665Z,990.49
2019-02-27T01:33:11.807Z,990.53
2019-02-27T01:34:12.048Z,990.49
2019-02-27T01:36:16.211Z,990.42
2019-02-27T01:37:16.448Z,990.44
2019-02-27T01:39:20.595Z,990.38
2019-02-27T01:40:20.834Z,990.35
2019-02-27T01:42:25.004Z,990.37
2019-02-27T01:43:25.241Z,990.34
2019-02-27T01:45:29.410Z,990.35
2019-02-27T01:46:29.649Z,990.37
2019-02-27T01:48:22.720Z,990.34
2019-02-27T01:49:22.960Z,990.33
2019-02-27T01:51:28.258Z,990.32
2019-02-27T01:52:27.366Z,990.34
2019-02-27T01:54:31.515Z,990.30
2019-02-27T01:55:31.755Z,990.22
2019-02-27T01:57:36.826Z,990.25
2019-02-27T01:58:36.161Z,990.28
2019-02-27T02:00:40.312Z,990.26
2019-02-27T02:01:40.548Z,990.26
2019-02-27T02:03:47.188Z,990.18
2019-02-27T02:04:44.953Z,990.19
2019-02-27T02:06:49.125Z,990.12
2019-02-27T02:07:49.360Z,990.13
2019-02-27T02:09:55.184Z,990.09
2019-02-27T02:10:53.737Z,990.07
2019-02-27T02:12:57.910Z,990.06
2019-02-27T02:13:58.145Z,990.01
2019-02-27T02:16:02.292Z,990.01
2019-02-27T02:17:05.025Z,990.02
2019-02-27T02:19:06.698Z,989.99
2019-02-27T02:20:06.938Z,990.00
2019-02-27T02:22:11.108Z,989.99
2019-02-27T02:23:13.946Z,990.00
2019-02-27T02:25:15.484Z,989.99
2019-02-27T02:26:15.722Z,989.96
2019-02-27T02:28:08.818Z,989.95
2019-02-27T02:29:09.053Z,989.97
2019-02-27T02:31:13.198Z,989.94
2019-02-27T02:32:16.766Z,989.92
2019-02-27T02:34:17.602Z,989.90
2019-02-27T02:35:17.838Z,989.95
2019-02-27T02:37:22.005Z,989.93
2019-02-27T02:38:22.241Z,989.91
2019-02-27T02:40:30.833Z,989.87
2019-02-27T02:41:26.624Z,989.93
2019-02-27T02:43:30.790Z,989.90
2019-02-27T02:44:31.027Z,989.92
2019-02-27T02:46:35.172Z,989.90
2019-02-27T02:47:35.412Z,989.88
2019-02-27T02:49:42.637Z,989.89
2019-02-27T02:50:39.814Z,989.85
2019-02-27T02:52:43.980Z,989.87
2019-02-27T02:53:44.217Z,989.85
2019-02-27T02:55:49.302Z,989.83
2019-02-27T02:56:48.606Z,989.83
2019-02-27T02:58:52.771Z,989.82
2019-02-27T02:59:53.008Z,989.78
2019-02-27T03:01:57.153Z,989.75
2019-02-27T03:03:00.540Z,989.77
2019-02-27T03:05:01.558Z,989.77
2019-02-27T03:06:01.795Z,989.80
2019-02-27T03:07:54.892Z,989.77
2019-02-27T03:08:56.221Z,989.76
2019-02-27T03:10:59.277Z,989.76
2019-02-27T03:11:59.511Z,989.75
2019-02-27T03:14:03.680Z,989.71
2019-02-27T03:15:03.931Z,989.71
2019-02-27T03:17:08.067Z,989.67
2019-02-27T03:18:08.304Z,989.71
2019-02-27T03:20:16.817Z,989.66
2019-02-27T03:21:12.708Z,989.66
2019-02-27T03:23:16.873Z,989.66
2019-02-27T03:24:17.119Z,989.65
2019-02-27T03:26:21.255Z,989.62
2019-02-27T03:27:21.492Z,989.58
2019-02-27T03:29:25.736Z,989.55
2019-02-27T03:30:34.197Z,989.49
2019-02-27T03:32:41.299Z,989.48
2019-02-27T03:33:30.284Z,989.49
2019-02-27T03:35:34.449Z,989.46
2019-02-27T03:36:35.948Z,989.46
2019-02-27T03:38:27.765Z,989.43
2019-02-27T03:39:28.000Z,989.47
2019-02-27T03:41:32.166Z,989.39
2019-02-27T03:43:56.331Z,989.38
2019-02-27T03:44:57.201Z,989.35
2019-02-27T03:47:00.709Z,989.39
2019-02-27T03:48:00.952Z,989.40
2019-02-27T03:50:05.115Z,989.36
2019-02-27T03:51:05.348Z,989.38
2019-02-27T03:53:11.124Z,989.37
2019-02-27T03:54:09.736Z,989.36
2019-02-27T03:56:13.898Z,989.29
2019-02-27T03:57:18.922Z,989.28
2019-02-27T03:59:18.300Z,989.25
2019-02-27T04:00:19.377Z,989.23
2019-02-27T04:02:22.686Z,989.28
2019-02-27T04:03:22.923Z,989.25
2019-02-27T04:05:27.086Z,989.28
2019-02-27T04:06:27.322Z,989.29
2019-02-27T04:08:20.396Z,989.24
2019-02-27T04:09:20.633Z,989.27
2019-02-27T04:11:24.801Z,989.24
2019-02-27T04:12:25.035Z,989.21
2019-02-27T04:14:29.202Z,989.17
2019-02-27T04:15:29.439Z,989.17
2019-02-27T04:17:33.584Z,989.14
2019-02-27T04:18:33.823Z,989.13
2019-02-27T04:20:37.980Z,989.14
2019-02-27T04:21:38.217Z,989.15
2019-02-27T04:23:47.980Z,989.16
2019-02-27T04:24:42.597Z,989.14
2019-02-27T04:26:46.765Z,989.08
2019-02-27T04:27:46.998Z,989.07
2019-02-27T04:29:51.168Z,989.12
2019-02-27T04:30:52.073Z,989.14
2019-02-27T04:32:55.542Z,989.18
2019-02-27T04:33:59.569Z,989.15
2019-02-27T04:35:59.943Z,989.16
2019-02-27T04:37:00.180Z,989.16
2019-02-27T04:39:04.326Z,989.19
2019-02-27T04:40:04.559Z,989.22
2019-02-27T04:42:08.721Z,989.19
2019-02-27T04:43:08.956Z,989.19
2019-02-27T04:45:13.173Z,989.20
2019-02-27T04:46:13.362Z,989.25
2019-02-27T04:48:06.431Z,989.21
2019-02-27T04:49:06.667Z,989.20
2019-02-27T04:51:10.833Z,989.16
2019-02-27T04:52:11.070Z,989.12
2019-02-27T04:54:15.224Z,989.11
2019-02-27T04:55:15.640Z,989.05
2019-02-27T04:57:19.606Z,989.01
2019-02-27T04:58:19.843Z,989.05
2019-02-27T05:00:26.081Z,988.99
2019-02-27T05:01:24.244Z,988.95
2019-02-27T05:03:28.633Z,988.98
2019-02-27T05:04:28.620Z,988.89
2019-02-27T05:06:32.784Z,988.89
2019-02-27T05:07:33.020Z,988.88
2019-02-27T05:09:37.159Z,988.92
2019-02-27T05:10:38.190Z,988.90
2019-02-27T05:12:41.565Z,988.83
2019-02-27T05:13:41.794Z,988.82
2019-02-27T05:15:45.963Z,988.83
2019-02-27T05:16:47.190Z,988.87
2019-02-27T05:18:50.346Z,988.82
2019-02-27T05:19:51.969Z,988.81
2019-02-27T05:21:54.749Z,988.79
2019-02-27T05:22:54.983Z,988.79
2019-02-27T05:24:59.124Z,988.80
2019-02-27T05:25:59.364Z,988.83
2019-02-27T05:27:52.469Z,988.81
2019-02-27T05:28:52.697Z,988.83
2019-02-27T05:30:56.862Z,988.79
2019-02-27T05:31:57.101Z,988.82
2019-02-27T05:34:01.265Z,988.81
2019-02-27T05:35:01.503Z,988.81
2019-02-27T05:37:06.032Z,988.76
2019-02-27T05:38:05.904Z,988.80
2019-02-27T05:40:10.042Z,988.84
2019-02-27T05:41:10.278Z,988.85
2019-02-27T05:43:14.448Z,988.81
2019-02-27T05:44:14.684Z,988.84
2019-02-27T05:46:18.827Z,988.80
2019-02-27T05:47:19.064Z,988.79
2019-02-27T05:49:26.776Z,988.82
2019-02-27T05:50:23.464Z,988.79
2019-02-27T05:52:27.629Z,988.82
2019-02-27T05:53:27.867Z,988.81
2019-02-27T05:55:32.015Z,988.79
2019-02-27T05:56:32.250Z,988.84
2019-02-27T05:58:25.340Z,988.84
2019-02-27T05:59:28.942Z,988.86
2019-02-27T06:01:29.718Z,988.85
2019-02-27T06:02:29.953Z,988.83
2019-02-27T06:04:34.580Z,988.86
2019-02-27T06:05:35.902Z,988.84
2019-02-27T06:07:38.521Z,988.81
2019-02-27T06:08:38.753Z,988.82
2019-02-27T06:10:42.897Z,988.87
2019-02-27T06:11:43.133Z,988.90
2019-02-27T06:13:47.532Z,988.88
2019-02-27T06:14:47.586Z,988.85
2019-02-27T06:16:51.737Z,988.87
2019-02-27T06:17:51.969Z,988.85
2019-02-27T06:19:56.138Z,988.86
2019-02-27T06:20:56.374Z,988.85
2019-02-27T06:23:04.181Z,988.86
2019-02-27T06:24:00.772Z,988.85
2019-02-27T06:26:04.914Z,988.91
2019-02-27T06:27:06.357Z,988.85
2019-02-27T06:29:09.306Z,988.87
2019-02-27T06:30:09.542Z,988.89
2019-02-27T06:32:13.688Z,988.92
2019-02-27T06:33:13.923Z,988.91
2019-02-27T06:35:18.085Z,988.99
2019-02-27T06:36:18.317Z,989.00
2019-02-27T06:38:11.412Z,989.07
2019-02-27T06:39:11.648Z,989.08
2019-02-27T06:41:16.329Z,989.10
2019-02-27T06:42:16.059Z,989.17
2019-02-27T06:44:20.197Z,989.15
2019-02-27T06:45:20.432Z,989.13
2019-02-27T06:47:24.576Z,989.20
2019-02-27T06:48:24.815Z,989.18
2019-02-27T06:50:29.035Z,989.25
2019-02-27T06:51:29.207Z,989.26
2019-02-27T06:53:33.370Z,989.28
2019-02-27T06:54:33.602Z,989.27
2019-02-27T06:56:37.743Z,989.30
2019-02-27T06:57:40.821Z,989.29
2019-02-27T06:59:42.149Z,989.34
2019-02-27T07:00:42.383Z,989.34
2019-02-27T07:02:46.539Z,989.38
2019-02-27T07:03:46.761Z,989.41
2019-02-27T07:05:50.927Z,989.43
2019-02-27T07:06:55.236Z,989.41
2019-02-27T07:08:55.352Z,989.43
2019-02-27T07:09:55.562Z,989.47
2019-02-27T07:11:59.708Z,989.48
2019-02-27T07:12:59.953Z,989.47
2019-02-27T07:15:04.113Z,989.47
2019-02-27T07:16:04.350Z,989.48
2019-02-27T07:17:57.421Z,989.53
2019-02-27T07:18:57.658Z,989.53
2019-02-27T07:21:01.834Z,989.57
2019-02-27T07:22:02.066Z,989.60
2019-02-27T07:24:06.237Z,989.60
2019-02-27T07:25:07.168Z,989.60
2019-02-27T07:27:10.631Z,989.62
2019-02-27T07:28:10.869Z,989.67
2019-02-27T07:30:15.056Z,989.69
2019-02-27T07:31:17.783Z,989.74
2019-02-27T07:33:19.483Z,989.86
2019-02-27T07:34:19.721Z,990.06
2019-02-27T07:36:23.913Z,990.78
2019-02-27T07:37:24.142Z,991.45
2019-02-27T07:39:32.611Z,992.34
2019-02-27T07:40:28.603Z,992.88
2019-02-27T07:42:32.758Z,995.21
2019-02-27T07:43:33.001Z,992.75
2019-02-27T07:45:37.182Z,991.26
2019-02-27T07:46:37.423Z,991.04
2019-02-27T07:48:30.517Z,990.61
2019-02-27T07:49:31.527Z,990.52
2019-02-27T07:51:34.937Z,990.59
2019-02-27T07:52:35.180Z,990.49
2019-02-27T07:54:39.430Z,990.45
2019-02-27T07:55:39.693Z,990.39
2019-02-27T07:57:43.849Z,990.26
2019-02-27T07:58:44.090Z,990.31
2019-02-27T08:00:49.842Z,990.42
2019-02-27T08:01:48.529Z,990.31
2019-02-27T08:03:52.689Z,990.39
2019-02-27T08:04:54.680Z,990.44
2019-02-27T08:06:57.109Z,990.36
2019-02-27T08:07:57.353Z,990.33
2019-02-27T08:10:04.601Z,990.54
2019-02-27T08:11:01.786Z,990.47
2019-02-27T08:13:05.947Z,990.63
2019-02-27T08:14:06.223Z,990.68
2019-02-27T08:16:10.410Z,991.06
2019-02-27T08:17:17.744Z,990.82
2019-02-27T08:19:14.824Z,990.51
2019-02-27T08:20:15.072Z,990.48
2019-02-27T08:22:19.319Z,990.34
2019-02-27T08:23:19.563Z,990.28
2019-02-27T08:25:23.751Z,990.38
2019-02-27T08:26:23.999Z,990.85
2019-02-27T08:28:17.092Z,991.48
2019-02-27T08:29:17.340Z,991.64
2019-02-27T08:31:21.527Z,991.79
2019-02-27T08:32:21.837Z,991.97
2019-02-27T08:34:26.031Z,992.07
2019-02-27T08:35:26.263Z,992.07
2019-02-27T08:37:30.457Z,992.12
2019-02-27T08:38:30.704Z,992.04
2019-02-27T08:40:34.900Z,992.01
2019-02-27T08:41:35.149Z,991.93
2019-02-27T08:43:41.227Z,991.86
2019-02-27T08:44:39.568Z,991.77
2019-02-27T08:46:43.762Z,991.55
2019-02-27T08:47:44.390Z,991.55
2019-02-27T08:49:48.297Z,991.41
2019-02-27T08:50:48.543Z,991.34
2019-02-27T08:52:52.756Z,991.25
2019-02-27T08:53:53.013Z,991.23
2019-02-27T08:55:57.211Z,991.14
2019-02-27T08:56:57.474Z,991.09
2019-02-27T08:59:05.065Z,991.05
2019-02-27T09:00:01.882Z,991.04
2019-02-27T09:02:06.078Z,990.97
2019-02-27T09:03:06.326Z,990.93
2019-02-27T09:05:10.499Z,990.93
2019-02-27T09:06:10.750Z,990.91
2019-02-27T09:08:03.873Z,990.78
2019-02-27T09:09:04.123Z,990.79
2019-02-27T09:11:08.321Z,990.82
2019-02-27T09:12:13.182Z,990.85
2019-02-27T09:14:12.758Z,990.81
2019-02-27T09:15:13.011Z,990.79
2019-02-27T09:17:17.205Z,990.71
2019-02-27T09:18:17.461Z,990.70
2019-02-27T09:20:21.634Z,990.72
2019-02-27T09:21:21.886Z,990.71
2019-02-27T09:23:26.087Z,990.80
2019-02-27T09:24:26.400Z,990.76
2019-02-27T09:26:30.533Z,990.72
2019-02-27T09:27:32.985Z,990.74
2019-02-27T09:29:34.960Z,990.74
2019-02-27T09:30:35.212Z,990.69
2019-02-27T09:32:39.414Z,989.84
2019-02-27T09:33:39.668Z,989.64
2019-02-27T09:35:43.845Z,989.55
2019-02-27T09:36:44.102Z,989.50
2019-02-27T09:38:48.301Z,989.42
2019-02-27T09:39:48.555Z,989.45
2019-02-27T09:41:52.761Z,989.45
2019-02-27T09:42:53.950Z,989.49
2019-02-27T09:44:57.193Z,989.41
2019-02-27T09:45:57.447Z,989.39
2019-02-27T09:47:50.580Z,989.39
2019-02-27T09:48:50.828Z,989.36
2019-02-27T09:50:56.924Z,989.29
2019-02-27T09:51:56.371Z,989.31
2019-02-27T09:53:59.469Z,989.30
2019-02-27T09:54:59.725Z,989.33
2019-02-27T09:57:03.930Z,989.32
2019-02-27T09:58:04.185Z,989.48
2019-02-27T10:00:08.370Z,990.08
2019-02-27T10:01:08.626Z,990.11
2019-02-27T10:03:12.831Z,990.10
2019-02-27T10:04:13.086Z,990.11
2019-02-27T10:06:17.268Z,990.12
2019-02-27T10:07:17.901Z,990.15
2019-02-27T10:09:21.728Z,990.09
2019-02-27T10:10:21.985Z,990.12
2019-02-27T10:12:27.795Z,990.13
2019-02-27T10:13:26.441Z,990.15
2019-02-27T10:15:30.628Z,990.10
2019-02-27T10:16:34.606Z,990.07
2019-02-27T10:18:24.017Z,990.06
2019-02-27T10:19:27.003Z,990.07
2019-02-27T10:21:28.453Z,990.09
2019-02-27T10:22:28.710Z,990.08
2019-02-27T10:24:32.916Z,990.02
2019-02-27T10:25:33.173Z,990.01
2019-02-27T10:27:37.382Z,989.92
2019-02-27T10:28:39.645Z,989.93
2019-02-27T10:30:41.837Z,989.91
2019-02-27T10:31:42.093Z,989.89
2019-02-27T10:33:46.304Z,989.78
2019-02-27T10:34:46.568Z,989.81
2019-02-27T10:36:50.777Z,989.77
2019-02-27T10:37:54.221Z,989.72
2019-02-27T10:39:55.222Z,989.69
2019-02-27T10:40:55.483Z,989.66
2019-02-27T10:42:59.692Z,989.65
2019-02-27T10:43:59.949Z,989.67
2019-02-27T10:46:04.134Z,989.66
2019-02-27T10:47:04.391Z,989.66
2019-02-27T10:49:08.607Z,989.62
2019-02-27T10:50:08.866Z,989.56
2019-02-27T10:52:13.103Z,989.55
2019-02-27T10:53:13.361Z,989.51
2019-02-27T10:55:17.633Z,989.43
2019-02-27T10:56:17.887Z,989.41
2019-02-27T10:58:13.296Z,989.31
2019-02-27T10:59:11.316Z,989.27
2019-02-27T11:01:15.526Z,989.22
2019-02-27T11:02:15.778Z,989.18
2019-02-27T11:04:19.997Z,989.18
2019-02-27T11:05:20.276Z,989.11
2019-02-27T11:07:24.471Z,989.05
2019-02-27T11:08:28.624Z,989.07
2019-02-27T11:10:28.954Z,989.01
2019-02-27T11:11:29.207Z,988.98
2019-02-27T11:13:33.431Z,988.90
2019-02-27T11:14:33.685Z,988.85
2019-02-27T11:16:37.900Z,988.76
2019-02-27T11:17:38.159Z,988.80
2019-02-27T11:19:43.394Z,988.80
2019-02-27T11:20:43.646Z,988.79
2019-02-27T11:22:47.843Z,988.74
2019-02-27T11:23:48.110Z,988.78
2019-02-27T11:25:56.706Z,988.68
2019-02-27T11:26:52.609Z,988.75
2019-02-27T11:28:57.936Z,988.74
2019-02-27T11:30:01.376Z,988.74
2019-02-27T11:32:02.293Z,988.70
2019-02-27T11:33:02.551Z,988.65
2019-02-27T11:35:06.769Z,988.63
2019-02-27T11:36:07.025Z,988.56
2019-02-27T11:38:01.157Z,988.57
2019-02-27T11:39:01.415Z,988.53
2019-02-27T11:41:05.663Z,988.53
2019-02-27T11:42:05.924Z,988.50
2019-02-27T11:44:13.932Z,988.49
2019-02-27T11:45:10.377Z,988.46
2019-02-27T11:47:14.632Z,988.36
2019-02-27T11:48:14.970Z,988.17
2019-02-27T11:50:19.219Z,987.89
2019-02-27T11:51:20.210Z,987.85
2019-02-27T11:53:23.676Z,987.83
2019-02-27T11:54:23.938Z,987.80
2019-02-27T11:56:28.174Z,987.88
2019-02-27T11:57:30.571Z,987.84
2019-02-27T11:59:32.637Z,987.86
2019-02-27T12:00:32.980Z,987.84
2019-02-27T12:02:38.007Z,987.81
2019-02-27T12:03:37.472Z,987.82
2019-02-27T12:05:41.698Z,987.80
2019-02-27T12:06:42.235Z,987.78
2019-02-27T12:08:46.156Z,987.77
2019-02-27T12:09:46.433Z,987.81
2019-02-27T12:11:50.699Z,987.75
2019-02-27T12:12:50.961Z,987.74
2019-02-27T12:14:55.158Z,987.67
2019-02-27T12:15:55.422Z,987.62
2019-02-27T12:17:48.574Z,987.61
2019-02-27T12:18:48.840Z,987.60
2019-02-27T12:20:53.962Z,987.59
2019-02-27T12:21:53.425Z,987.52
2019-02-27T12:23:57.616Z,987.48
2019-02-27T12:24:58.363Z,987.51
2019-02-27T12:27:02.106Z,987.44
2019-02-27T12:28:02.396Z,987.46
2019-02-27T12:30:06.605Z,987.38
2019-02-27T12:31:08.107Z,987.32
2019-02-27T12:33:11.088Z,987.26
2019-02-27T12:34:11.351Z,987.23
2019-02-27T12:36:16.075Z,987.20
2019-02-27T12:37:27.509Z,987.17
2019-02-27T12:39:20.232Z,987.07
2019-02-27T12:40:23.881Z,987.01
2019-02-27T12:42:24.706Z,986.95
2019-02-27T12:43:24.965Z,986.93
2019-02-27T12:45:29.776Z,986.84
2019-02-27T12:46:31.906Z,986.81
2019-02-27T12:48:22.562Z,986.73
2019-02-27T12:49:22.821Z,986.74
2019-02-27T12:51:27.041Z,986.72
2019-02-27T12:52:27.297Z,986.69
2019-02-27T12:54:31.487Z,986.69
2019-02-27T12:55:35.454Z,986.65
2019-02-27T12:57:35.965Z,986.65
2019-02-27T12:58:36.217Z,986.64
2019-02-27T13:00:42.563Z,986.60
2019-02-27T13:01:40.662Z,986.61
2019-02-27T13:03:44.873Z,986.53
2019-02-27T13:04:45.128Z,986.53
2019-02-27T13:06:49.340Z,986.45
2019-02-27T13:07:49.597Z,986.38
2019-02-27T13:09:58.412Z,986.33
2019-02-27T13:10:54.042Z,986.28
2019-02-27T13:12:58.260Z,986.28
2019-02-27T13:13:59.723Z,986.20
2019-02-27T13:16:02.707Z,986.19
2019-02-27T13:17:02.964Z,986.18
2019-02-27T13:19:07.235Z,986.18
2019-02-27T13:20:09.065Z,986.13
2019-02-27T13:22:11.655Z,986.13
2019-02-27T13:23:11.911Z,986.15
2019-02-27T13:25:16.099Z,986.09
2019-02-27T13:26:16.354Z,986.07
2019-02-27T13:28:09.495Z,986.12
2019-02-27T13:29:09.758Z,986.08
2019-02-27T13:31:16.199Z,986.01
2019-02-27T13:32:14.204Z,986.03
2019-02-27T13:34:18.416Z,986.01
2019-02-27T13:35:20.154Z,985.95
2019-02-27T13:37:22.880Z,985.92
2019-02-27T13:38:23.135Z,985.90
2019-02-27T13:40:27.325Z,985.86
2019-02-27T13:41:27.582Z,985.79
2019-02-27T13:43:31.801Z,985.74
2019-02-27T13:44:34.454Z,985.77
2019-02-27T13:46:36.252Z,985.71
2019-02-27T13:47:36.508Z,985.67
2019-02-27T13:49:40.717Z,985.70
2019-02-27T13:50:40.974Z,985.65
2019-02-27T13:52:49.805Z,985.61
2019-02-27T13:53:45.436Z,985.63
2019-02-27T13:55:49.625Z,985.61
2019-02-27T13:56:49.885Z,985.63
2019-02-27T13:58:54.091Z,985.61
2019-02-27T13:59:54.349Z,985.57
2019-02-27T14:02:00.650Z,985.57
2019-02-27T14:02:58.791Z,985.58
2019-02-27T14:05:03.000Z,985.59
2019-02-27T14:06:03.261Z,985.57
2019-02-27T14:07:58.321Z,985.50
2019-02-27T14:08:56.651Z,985.50
2019-02-27T14:11:00.840Z,985.41
2019-02-27T14:12:01.098Z,985.37
2019-02-27T14:14:05.305Z,985.33
2019-02-27T14:15:05.559Z,985.34
2019-02-27T14:17:11.313Z,985.27
2019-02-27T14:18:10.005Z,985.21
2019-02-27T14:20:14.216Z,985.18
2019-02-27T14:21:15.034Z,985.20
2019-02-27T14:23:18.683Z,985.12
2019-02-27T14:24:20.656Z,985.11
2019-02-27T14:26:23.128Z,985.06
2019-02-27T14:27:23.384Z,985.02
2019-02-27T14:29:29.791Z,985.04
2019-02-27T14:30:27.848Z,985.04
2019-02-27T14:32:32.039Z,985.07
2019-02-27T14:33:32.296Z,985.00
2019-02-27T14:35:36.697Z,985.01
2019-02-27T14:36:39.359Z,984.96
2019-02-27T14:38:29.896Z,984.99
2019-02-27T14:39:30.516Z,984.97
2019-02-27T14:41:34.357Z,984.90
2019-02-27T14:42:34.613Z,984.89
2019-02-27T14:44:38.821Z,984.85
2019-02-27T14:45:40.719Z,984.83
2019-02-27T14:47:43.260Z,984.76
2019-02-27T14:48:43.516Z,984.73
2019-02-27T14:50:47.722Z,984.68
2019-02-27T14:51:47.978Z,984.69
2019-02-27T14:53:53.083Z,984.64
2019-02-27T14:54:52.434Z,984.60
2019-02-27T14:56:56.618Z,984.57
2019-02-27T14:57:56.871Z,984.57
2019-02-27T15:00:02.521Z,984.55
2019-02-27T15:01:01.330Z,984.49
2019-02-27T15:03:05.534Z,984.46
2019-02-27T15:04:05.787Z,984.44
2019-02-27T15:06:09.991Z,984.38
2019-02-27T15:07:10.246Z,984.35
2019-02-27T15:09:14.452Z,984.34
2019-02-27T15:10:14.710Z,984.31
2019-02-27T15:12:19.611Z,984.27
2019-02-27T15:13:19.160Z,984.28
2019-02-27T15:15:23.368Z,984.24
2019-02-27T15:16:23.623Z,984.27
2019-02-27T15:18:16.731Z,984.24
2019-02-27T15:19:18.849Z,984.23
2019-02-27T15:21:21.188Z,984.24
2019-02-27T15:22:21.442Z,984.22
2019-02-27T15:24:25.625Z,984.18
2019-02-27T15:25:27.403Z,984.15
2019-02-27T15:27:30.083Z,984.08
2019-02-27T15:28:33.347Z,984.14
2019-02-27T15:30:34.545Z,984.09
2019-02-27T15:31:34.799Z,984.09
2019-02-27T15:33:39.201Z,984.07
2019-02-27T15:34:39.234Z,984.05
2019-02-27T15:36:43.432Z,984.03
2019-02-27T15:37:43.684Z,984.03
2019-02-27T15:39:47.864Z,984.02
2019-02-27T15:40:48.120Z,984.03
2019-02-27T15:42:53.337Z,983.95
2019-02-27T15:44:00.068Z,983.95
2019-02-27T15:45:57.800Z,983.93
2019-02-27T15:46:58.121Z,983.90
2019-02-27T15:49:02.220Z,983.84
2019-02-27T15:50:02.762Z,983.86
2019-02-27T15:52:07.635Z,983.81
2019-02-27T15:53:06.924Z,983.86
2019-02-27T15:55:11.101Z,983.86
2019-02-27T15:56:11.351Z,983.81
2019-02-27T15:58:04.482Z,983.81
2019-02-27T15:59:07.988Z,983.80
2019-02-27T16:01:08.939Z,983.78
2019-02-27T16:02:09.194Z,983.78
2019-02-27T16:04:13.373Z,983.71
2019-02-27T16:05:13.625Z,983.71
2019-02-27T16:07:17.830Z,983.62
2019-02-27T16:08:20.269Z,983.62
2019-02-27T16:10:22.258Z,983.54
2019-02-27T16:11:22.511Z,983.51
2019-02-27T16:13:26.707Z,983.46
2019-02-27T16:14:26.955Z,983.45
2019-02-27T16:16:31.161Z,983.44
2019-02-27T16:17:31.953Z,983.44
2019-02-27T16:19:35.581Z,983.44
2019-02-27T16:20:35.835Z,983.42
2019-02-27T16:22:40.029Z,983.35
2019-02-27T16:23:40.281Z,983.30
2019-02-27T16:25:44.456Z,983.31
2019-02-27T16:26:44.706Z,983.29
2019-02-27T16:28:49.916Z,983.20
2019-02-27T16:29:50.165Z,983.21
2019-02-27T16:31:54.402Z,983.26
2019-02-27T16:32:54.657Z,983.22
2019-02-27T16:34:59.995Z,983.18
2019-02-27T16:36:00.216Z,983.23
2019-02-27T16:37:56.507Z,983.22
2019-02-27T16:38:53.584Z,983.17
2019-02-27T16:40:57.771Z,983.10
2019-02-27T16:42:00.912Z,983.10
2019-02-27T16:44:02.216Z,983.08
2019-02-27T16:45:02.467Z,983.06
2019-02-27T16:47:06.652Z,983.06
2019-02-27T16:48:06.901Z,983.05
2019-02-27T16:50:11.079Z,982.98
2019-02-27T16:51:11.317Z,982.96
2019-02-27T16:53:18.726Z,982.93
2019-02-27T16:54:15.754Z,982.94
2019-02-27T16:56:19.922Z,982.84
2019-02-27T16:57:24.119Z,982.88
2019-02-27T16:59:24.353Z,982.85
2019-02-27T17:00:24.599Z,982.84
2019-02-27T17:02:28.761Z,982.82
2019-02-27T17:03:29.006Z,982.81
2019-02-27T17:05:33.192Z,982.77
2019-02-27T17:06:33.439Z,982.75
2019-02-27T17:08:28.303Z,982.74
2019-02-27T17:09:26.788Z,982.75
2019-02-27T17:11:32.512Z,982.73
2019-02-27T17:12:31.201Z,982.77
2019-02-27T17:14:35.388Z,982.73
2019-02-27T17:15:36.460Z,982.70
2019-02-27T17:17:39.787Z,982.66
2019-02-27T17:18:40.031Z,982.59
2019-02-27T17:20:46.402Z,982.59
2019-02-27T17:21:44.457Z,982.57
2019-02-27T17:23:48.639Z,982.59
2019-02-27T17:24:48.881Z,982.59
2019-02-27T17:26:53.037Z,982.56
2019-02-27T17:27:53.582Z,982.55
2019-02-27T17:29:59.798Z,982.54
2019-02-27T17:30:57.697Z,982.55
2019-02-27T17:33:04.109Z,982.51
2019-02-27T17:34:02.102Z,982.47
2019-02-27T17:36:06.269Z,982.55
2019-02-27T17:37:07.204Z,982.56
2019-02-27T17:39:10.685Z,982.51
2019-02-27T17:40:10.925Z,982.52
2019-02-27T17:42:18.284Z,982.50
2019-02-27T17:43:15.323Z,982.48
2019-02-27T17:45:19.496Z,982.50
2019-02-27T17:46:20.799Z,982.44
2019-02-27T17:48:13.164Z,982.39
2019-02-27T17:49:13.061Z,982.36
2019-02-27T17:51:17.233Z,982.33
2019-02-27T17:52:17.472Z,982.32
2019-02-27T17:54:21.645Z,982.35
2019-02-27T17:55:21.889Z,982.35
2019-02-27T17:57:26.043Z,982.29
2019-02-27T17:58:26.284Z,982.28
2019-02-27T18:00:30.470Z,982.33
2019-02-27T18:01:30.745Z,982.23
2019-02-27T18:03:36.601Z,982.23
2019-02-27T18:04:35.141Z,982.21
2019-02-27T18:06:39.369Z,982.17
2019-02-27T18:07:40.320Z,982.17
2019-02-27T18:09:43.874Z,982.16
2019-02-27T18:10:44.115Z,982.12
2019-02-27T18:12:48.302Z,982.07
2019-02-27T18:13:48.620Z,982.08
2019-02-27T18:15:53.379Z,982.01
2019-02-27T18:16:53.060Z,981.99
2019-02-27T18:18:58.776Z,981.91
2019-02-27T18:19:57.533Z,981.89
2019-02-27T18:22:01.709Z,981.88
2019-02-27T18:23:01.956Z,981.86
2019-02-27T18:25:07.562Z,981.83
2019-02-27T18:26:06.371Z,981.84
2019-02-27T18:27:59.913Z,981.83
2019-02-27T18:28:59.686Z,981.81
2019-02-27T18:31:03.862Z,981.76
2019-02-27T18:32:06.481Z,981.74
2019-02-27T18:34:08.296Z,981.75
2019-02-27T18:35:08.534Z,981.73
2019-02-27T18:37:14.502Z,981.72
2019-02-27T18:38:12.990Z,981.69
2019-02-27T18:40:17.162Z,981.65
2019-02-27T18:41:17.424Z,981.63
2019-02-27T18:43:21.574Z,981.61
2019-02-27T18:44:21.811Z,981.57
2019-02-27T18:46:25.997Z,981.55
2019-02-27T18:47:26.234Z,981.53
2019-02-27T18:49:30.388Z,981.48
2019-02-27T18:50:30.622Z,981.47
2019-02-27T18:52:34.847Z,981.50
2019-02-27T18:53:35.075Z,981.54
2019-02-27T18:55:39.273Z,981.51
2019-02-27T18:56:40.439Z,981.47
2019-02-27T18:58:32.597Z,981.47
2019-02-27T18:59:32.835Z,981.45
2019-02-27T19:01:37.007Z,981.43
2019-02-27T19:02:37.244Z,981.44
2019-02-27T19:04:41.404Z,981.45
2019-02-27T19:05:42.039Z,981.41